Time;durP1;ratioP1;P1;durP2;ratioP2;P2;SDS_P1;SDS_P2;PMS_P1;PMS_P2;Temp;Humidity;BMP_temperature;BMP_pressure;BME280_temperature;BME280_humidity;BME280_pressure;Samples;Min_cycle;Max_cycle;Signal;HPM_P1;HPM_P2
2022/12/31 00:03:09;;;;;;;;;;;;;;;;;;;;;
2022/12/31 00:25:01;;;;;;;2.60;1.50;;;;;;;11.17;100.00;100218.53;6093136;23;20010;-89
2022/12/31 00:27:39;;;;;;;3.45;1.55;;;;;;;11.09;100.00;100212.94;6039385;23;20095;-88
2022/12/31 00:30:05;;;;;;;3.05;1.55;;;;;;;11.19;100.00;100229.78;6182841;23;20008;-87
2022/12/31 00:33:07;;;;;;;5.80;1.90;;;;;;;11.14;100.00;100215.56;6183427;23;20009;-87
2022/12/31 00:36:35;;;;;;;1.90;1.48;;;;;;;11.10;100.00;100199.25;6130173;23;20400;-87
2022/12/31 00:48:52;;;;;;;1.93;1.73;;;;;;;11.26;100.00;100212.56;6152175;23;20009;-88
2022/12/31 01:02:33;;;;;;;3.10;1.15;;;;;;;11.12;100.00;100189.06;6005042;23;20077;-88
2022/12/31 01:52:47;;;;;;;1.67;0.73;;;;;;;10.94;100.00;100200.41;6191827;22;20260;-87
2022/12/31 01:56:05;;;;;;;1.70;0.50;;;;;;;11.09;100.00;100250.47;6124519;23;20104;-89
2022/12/31 01:59:47;;;;;;;9.77;0.68;;;;;;;11.09;100.00;100277.28;6048235;23;20531;-88
2022/12/31 02:02:43;;;;;;;7.45;0.60;;;;;;;10.97;100.00;100245.44;6068571;23;20034;-88
2022/12/31 02:05:49;;;;;;;7.00;0.73;;;;;;;11.11;100.00;100256.38;6150471;23;20028;-88
2022/12/31 03:06:02;;;;;;;2.30;1.95;;;;;;;10.97;100.00;100265.00;6155634;23;20125;-88
2022/12/31 03:08:27;;;;;;;4.38;2.38;;;;;;;11.01;100.00;100265.25;6151506;23;20064;-88
2022/12/31 03:10:55;;;;;;;3.57;2.00;;;;;;;10.98;100.00;100255.88;6151113;23;20006;-88
2022/12/31 03:27:52;;;;;;;2.77;1.60;;;;;;;10.82;100.00;100219.47;6069547;23;20308;-89
2022/12/31 03:39:59;;;;;;;2.67;1.85;;;;;;;10.75;100.00;100201.84;6184551;23;20021;-89
2022/12/31 03:45:41;;;;;;;2.80;2.30;;;;;;;10.91;100.00;100220.53;6186441;22;20032;-89
2022/12/31 03:55:20;;;;;;;2.40;1.70;;;;;;;10.77;100.00;100190.84;6152611;23;20023;-88
2022/12/31 03:57:49;;;;;;;2.30;1.92;;;;;;;10.78;100.00;100200.47;6062870;23;20455;-88
2022/12/31 04:00:17;;;;;;;2.10;1.90;;;;;;;10.74;100.00;100177.97;6062951;23;20101;-89
2022/12/31 04:06:15;;;;;;;2.10;1.90;;;;;;;10.90;100.00;100200.94;6184960;23;20025;-89
2022/12/31 04:09:37;;;;;;;2.87;1.87;;;;;;;10.89;100.00;100207.38;6184496;23;20009;-89
2022/12/31 04:12:28;;;;;;;3.38;1.48;;;;;;;10.93;100.00;100194.25;6184110;23;20013;-89
2022/12/31 04:15:44;;;;;;;1.60;1.40;;;;;;;10.98;100.00;100199.56;6184677;23;20044;-89
2022/12/31 04:18:53;;;;;;;3.05;1.33;;;;;;;10.86;100.00;100162.38;6184016;23;20456;-90
2022/12/31 04:21:56;;;;;;;1.63;1.00;;;;;;;11.13;100.00;100181.81;6184050;23;20031;-90
2022/12/31 04:24:45;;;;;;;;;;;;;;;;;;;;;
2022/12/31 04:31:11;;;;;;;4.85;1.05;;;;;;;11.21;100.00;100173.19;6177344;23;20092;-90
2022/12/31 04:33:45;;;;;;;6.93;1.15;;;;;;;11.32;100.00;100166.66;6143980;23;20093;-90
2022/12/31 04:39:43;;;;;;;2.65;0.95;;;;;;;11.49;100.00;100157.44;6121340;23;20017;-90
2022/12/31 04:45:23;;;;;;;5.03;1.33;;;;;;;11.60;100.00;100148.22;6066251;23;20015;-89
2022/12/31 04:48:45;;;;;;;6.63;1.10;;;;;;;11.61;100.00;100139.09;6183758;23;20012;-89
2022/12/31 04:51:56;;;;;;;;;;;;;;;;;;;;;
2022/12/31 04:54:28;;;;;;;8.27;1.35;;;;;;;11.77;100.00;100181.91;6015249;23;20102;-89
2022/12/31 04:57:27;;;;;;;6.33;1.20;;;;;;;11.93;100.00;100212.91;6063189;23;20007;-90
2022/12/31 05:03:46;;;;;;;3.55;1.20;;;;;;;11.88;100.00;100191.47;6179777;23;20013;-89
2022/12/31 05:06:20;;;;;;;2.92;1.20;;;;;;;11.89;100.00;100203.81;6172229;23;20076;-89
2022/12/31 05:08:59;;;;;;;7.10;1.40;;;;;;;11.94;100.00;100201.09;6180097;23;20481;-89
2022/12/31 05:11:25;;;;;;;7.82;1.50;;;;;;;12.06;100.00;100216.84;6178881;23;20011;-89
2022/12/31 05:16:39;;;;;;;5.00;1.27;;;;;;;12.01;100.00;100206.16;6212416;23;20101;-89
2022/12/31 05:19:57;;;;;;;7.17;1.20;;;;;;;12.16;100.00;100207.91;6211781;23;20061;-90
2022/12/31 05:35:16;;;;;;;3.30;0.85;;;;;;;12.25;100.00;100256.44;6201529;22;20013;-89
2022/12/31 05:37:41;;;;;;;2.97;0.80;;;;;;;12.23;100.00;100258.59;6183310;23;20013;-89
2022/12/31 05:40:07;;;;;;;2.73;0.80;;;;;;;12.23;100.00;100248.63;6181416;23;20087;-88
2022/12/31 05:42:33;;;;;;;5.20;1.00;;;;;;;12.32;100.00;100259.59;6183140;23;20001;-87
2022/12/31 05:44:58;;;;;;;7.13;0.93;;;;;;;12.29;100.00;100248.59;6182770;23;20056;-89
2022/12/31 05:47:23;;;;;;;3.93;0.90;;;;;;;12.30;100.00;100255.56;6181393;23;20389;-91
2022/12/31 05:49:49;;;;;;;4.13;0.90;;;;;;;12.31;100.00;100257.19;6181406;23;20044;-89
2022/12/31 05:52:14;;;;;;;3.20;0.60;;;;;;;12.33;100.00;100260.38;6182719;23;20085;-89
2022/12/31 05:54:40;;;;;;;3.37;0.80;;;;;;;12.34;100.00;100246.66;6183115;23;20005;-90
2022/12/31 05:57:06;;;;;;;2.27;0.70;;;;;;;12.31;100.00;100257.19;6182494;23;20056;-90
2022/12/31 05:59:32;;;;;;;1.77;0.80;;;;;;;12.34;100.00;100246.66;6182606;23;20233;-90
2022/12/31 06:01:57;;;;;;;2.65;0.60;;;;;;;12.32;100.00;100253.41;6182747;23;20005;-90
2022/12/31 06:04:23;;;;;;;3.43;0.70;;;;;;;12.35;100.00;100258.22;6181984;23;20090;-88
2022/12/31 06:06:48;;;;;;;4.80;0.70;;;;;;;12.35;100.00;100247.47;6183676;23;20005;-90
2022/12/31 06:09:15;;;;;;;4.17;0.73;;;;;;;12.36;100.00;100259.81;6181693;23;20005;-91
2022/12/31 06:11:45;;;;;;;2.92;0.98;;;;;;;12.37;100.00;100272.19;6182471;23;20009;-90
2022/12/31 06:14:11;;;;;;;3.97;0.70;;;;;;;12.36;100.00;100271.38;6186225;23;20009;-89
2022/12/31 06:16:38;;;;;;;4.47;0.83;;;;;;;12.36;100.00;100262.50;6186813;23;20240;-93
2022/12/31 06:19:03;;;;;;;2.63;0.70;;;;;;;12.34;100.00;100270.84;6186360;23;20088;-90
2022/12/31 06:21:29;;;;;;;4.23;0.67;;;;;;;12.38;100.00;100273.78;6183192;23;20525;-89
2022/12/31 06:23:54;;;;;;;2.17;0.50;;;;;;;12.48;100.00;100280.94;6184124;23;20001;-89
2022/12/31 06:26:20;;;;;;;2.20;0.60;;;;;;;12.47;100.00;100272.06;6185103;23;20021;-89
2022/12/31 06:28:45;;;;;;;4.00;0.60;;;;;;;12.53;100.00;100289.75;6183201;23;20310;-88
2022/12/31 06:31:12;;;;;;;3.10;0.90;;;;;;;12.51;100.00;100286.53;6181894;23;20060;-90
2022/12/31 06:33:38;;;;;;;1.88;0.40;;;;;;;12.50;100.00;100295.69;6182012;23;20047;-89
2022/12/31 06:36:06;;;;;;;1.93;0.53;;;;;;;12.51;100.00;100304.53;6182795;23;20004;-89
2022/12/31 06:38:33;;;;;;;2.15;0.60;;;;;;;12.50;100.00;100287.63;6182029;23;20005;-89
2022/12/31 06:41:03;;;;;;;3.58;0.68;;;;;;;12.51;100.00;100278.47;6181939;23;20066;-90
2022/12/31 06:43:28;;;;;;;3.40;0.60;;;;;;;12.61;100.00;100287.50;6182659;23;20299;-89
2022/12/31 06:45:54;;;;;;;3.60;0.60;;;;;;;12.64;100.00;100286.94;6183173;23;20012;-89
2022/12/31 06:48:19;;;;;;;1.50;0.43;;;;;;;12.57;100.00;100288.09;6182777;23;20357;-89
2022/12/31 06:50:44;;;;;;;4.67;0.70;;;;;;;12.58;100.00;100275.44;6180138;23;20012;-88
2022/12/31 06:53:10;;;;;;;3.90;0.70;;;;;;;12.65;100.00;100292.06;6180902;23;20425;-90
2022/12/31 06:55:35;;;;;;;2.87;0.53;;;;;;;12.65;100.00;100293.94;6182827;23;20240;-90
2022/12/31 06:58:01;;;;;;;1.80;0.50;;;;;;;12.64;100.00;100295.00;6182956;23;20076;-90
2022/12/31 07:00:27;;;;;;;3.38;0.70;;;;;;;12.69;100.00;100273.47;6185353;23;20012;-89
2022/12/31 07:03:14;;;;;;;3.28;0.70;;;;;;;12.70;100.00;100293.88;6181963;23;20146;-92
2022/12/31 07:05:51;;;;;;;4.50;0.67;;;;;;;12.70;100.00;100296.56;6182894;23;20067;-92
2022/12/31 07:08:28;;;;;;;3.23;0.53;;;;;;;12.67;100.00;100297.13;6181460;23;20303;-91
2022/12/31 07:11:19;;;;;;;3.50;0.60;;;;;;;12.68;100.00;100296.88;6183053;23;20013;-88
2022/12/31 07:14:12;;;;;;;6.57;0.70;;;;;;;12.69;100.00;100289.59;6182690;23;20066;-92
2022/12/31 07:17:01;;;;;;;3.72;0.80;;;;;;;12.74;100.00;100305.69;6182371;23;20499;-89
2022/12/31 07:19:35;;;;;;;4.20;0.80;;;;;;;12.77;100.00;100307.81;6183109;23;20001;-88
2022/12/31 07:22:01;;;;;;;4.32;0.80;;;;;;;12.79;100.00;100300.22;6181655;23;20093;-89
2022/12/31 07:24:27;;;;;;;3.63;0.83;;;;;;;12.83;100.00;100303.16;6182244;23;20092;-90
2022/12/31 07:27:11;;;;;;;4.00;0.88;;;;;;;12.88;100.00;100314.66;6182924;23;20449;-90
2022/12/31 07:29:57;;;;;;;3.25;0.60;;;;;;;12.89;100.00;100307.38;6182500;23;20001;-89
2022/12/31 07:33:07;;;;;;;4.05;0.95;;;;;;;12.95;100.00;100300.06;6135859;23;20496;-91
2022/12/31 07:39:25;;;;;;;3.73;0.90;;;;;;;12.96;100.00;100325.88;6182812;23;20068;-91
2022/12/31 07:42:06;;;;;;;2.78;0.77;;;;;;;13.08;100.00;100312.81;6187159;23;20065;-93
2022/12/31 07:45:15;;;;;;;4.53;0.68;;;;;;;13.03;100.00;100311.00;6188325;23;20040;-93
2022/12/31 07:47:47;;;;;;;3.20;0.80;;;;;;;12.99;100.00;100309.16;6187754;23;20092;-93
2022/12/31 07:50:19;;;;;;;4.05;0.73;;;;;;;12.93;100.00;100297.66;6184505;23;20031;-91
2022/12/31 07:52:54;;;;;;;6.43;1.00;;;;;;;13.08;100.00;100315.50;6183944;23;20011;-91
2022/12/31 07:55:37;;;;;;;2.97;0.70;;;;;;;13.02;100.00;100313.97;6188461;23;20001;-92
2022/12/31 07:58:44;;;;;;;7.25;1.00;;;;;;;12.83;100.00;100306.63;6196806;23;20008;-96
2022/12/31 08:01:14;;;;;;;3.75;0.80;;;;;;;12.91;100.00;100304.41;6184726;23;20009;-91
2022/12/31 08:07:42;;;;;;;;;;;;;;;;;;;;;
2022/12/31 08:10:35;;;;;;;5.40;0.73;;;;;;;12.98;100.00;100329.06;6106833;23;20018;-95
2022/12/31 08:16:12;;;;;;;3.65;0.80;;;;;;;12.92;100.00;100362.50;6200005;22;20021;-96
2022/12/31 08:18:43;;;;;;;2.55;0.85;;;;;;;12.96;100.00;100358.16;6190439;23;20084;-96
2022/12/31 08:21:14;;;;;;;4.22;0.80;;;;;;;12.78;100.00;100365.84;6189327;23;20005;-96
2022/12/31 08:26:43;;;;;;;3.30;0.80;;;;;;;12.80;100.00;100395.94;6190058;22;20024;-89
2022/12/31 08:29:26;;;;;;;5.27;1.10;;;;;;;12.76;100.00;100383.34;6186997;23;20247;-91
2022/12/31 08:32:21;;;;;;;7.25;1.13;;;;;;;12.78;100.00;100394.63;6189317;23;20016;-93
2022/12/31 08:34:57;;;;;;;5.85;0.82;;;;;;;12.74;100.00;100423.97;6188722;23;20087;-90
2022/12/31 08:37:35;;;;;;;3.63;0.90;;;;;;;12.79;100.00;100428.47;6186145;23;20009;-90
2022/12/31 08:40:15;;;;;;;1.95;0.60;;;;;;;12.83;100.00;100426.84;6187219;23;20012;-90
2022/12/31 08:43:10;;;;;;;5.63;0.80;;;;;;;12.92;100.00;100435.09;6192944;23;20527;-94
2022/12/31 08:45:38;;;;;;;5.97;0.87;;;;;;;13.00;100.00;100442.53;6157617;23;20245;-92
2022/12/31 08:48:25;;;;;;;7.05;0.80;;;;;;;12.93;100.00;100440.19;6191291;23;20001;-93
2022/12/31 08:50:52;;;;;;;2.00;0.60;;;;;;;12.93;100.00;100447.47;6208555;23;20367;-96
2022/12/31 08:53:18;;;;;;;7.60;1.13;;;;;;;12.96;100.00;100457.66;6205473;23;19991;-96
2022/12/31 08:55:46;;;;;;;3.60;0.90;;;;;;;12.96;100.00;100445.00;6196521;23;20005;-96
2022/12/31 09:37:36;;;;;;;1.87;0.90;;;;;;;12.77;100.00;100552.44;6142446;22;21316;-87
2022/12/31 09:40:28;;;;;;;4.00;1.15;;;;;;;12.79;100.00;100546.78;6178479;23;20013;-86
2022/12/31 09:43:15;;;;;;;3.28;1.35;;;;;;;12.81;100.00;100558.84;6182055;23;20019;-84
2022/12/31 09:45:52;;;;;;;2.45;1.00;;;;;;;12.79;100.00;100558.31;6181932;23;20045;-85
2022/12/31 09:48:47;;;;;;;6.22;1.30;;;;;;;12.79;100.00;100555.63;6180484;23;20009;-87
2022/12/31 09:51:35;;;;;;;5.37;1.43;;;;;;;12.79;100.00;100563.69;6181574;23;20079;-87
2022/12/31 09:54:21;;;;;;;7.57;1.50;;;;;;;12.79;100.00;100555.63;6182413;23;20275;-87
2022/12/31 09:57:14;;;;;;;7.13;1.30;;;;;;;12.79;100.00;100542.19;6183044;23;20401;-87
2022/12/31 09:59:55;;;;;;;4.20;1.30;;;;;;;12.90;100.00;100547.50;6181882;23;20013;-87
2022/12/31 10:02:46;;;;;;;3.95;1.00;;;;;;;12.87;100.00;100560.44;6183082;23;20039;-89
2022/12/31 10:05:30;;;;;;;6.32;1.20;;;;;;;12.91;100.00;100554.50;6182733;23;20013;-86
2022/12/31 10:08:14;;;;;;;6.63;1.27;;;;;;;12.94;100.00;100560.13;6181928;23;20005;-88
2022/12/31 10:10:53;;;;;;;6.77;1.33;;;;;;;12.99;100.00;100557.41;6182091;23;20252;-88
2022/12/31 10:13:34;;;;;;;5.35;1.20;;;;;;;13.06;100.00;100561.63;6182346;23;20044;-88
2022/12/31 10:15:59;;;;;;;3.67;0.90;;;;;;;13.11;100.00;100565.13;6182453;23;20016;-88
2022/12/31 10:18:30;;;;;;;4.70;1.20;;;;;;;13.10;100.00;100568.88;6182109;23;20421;-88
2022/12/31 10:21:10;;;;;;;5.00;1.30;;;;;;;13.14;100.00;100569.94;6183199;23;20063;-88
2022/12/31 10:23:47;;;;;;;7.75;1.15;;;;;;;13.22;100.00;100559.63;6183483;23;20059;-89
2022/12/31 10:26:51;;;;;;;5.72;1.38;;;;;;;13.26;100.00;100553.41;6184548;23;20108;-88
2022/12/31 10:29:41;;;;;;;3.83;1.10;;;;;;;13.38;100.00;100555.72;6183478;23;20024;-89
2022/12/31 10:32:18;;;;;;;4.95;1.50;;;;;;;13.42;100.00;100547.94;6182680;23;20009;-88
2022/12/31 10:34:54;;;;;;;4.20;1.23;;;;;;;13.45;100.00;100537.41;6182287;23;20040;-88
2022/12/31 10:37:28;;;;;;;8.15;1.67;;;;;;;13.42;100.00;100532.56;6182211;23;20059;-86
2022/12/31 10:39:59;;;;;;;6.18;1.30;;;;;;;13.50;100.00;100535.75;6156738;23;20088;-85
2022/12/31 10:42:48;;;;;;;4.03;1.17;;;;;;;13.53;100.00;100533.28;6181725;23;20009;-86
2022/12/31 10:45:39;;;;;;;5.77;0.90;;;;;;;13.58;100.00;100544.00;6182099;23;20420;-86
2022/12/31 10:48:17;;;;;;;5.13;1.30;;;;;;;13.63;100.00;100537.75;6180663;23;21013;-86
2022/12/31 10:51:32;;;;;;;6.25;1.40;;;;;;;13.72;100.00;100552.19;6181616;23;20005;-86
2022/12/31 10:54:20;;;;;;;6.63;1.65;;;;;;;13.69;100.00;100552.78;6180724;23;20005;-85
2022/12/31 10:57:05;;;;;;;5.85;1.30;;;;;;;13.68;100.00;100553.88;6155332;23;20005;-86
2022/12/31 10:59:33;;;;;;;5.85;1.30;;;;;;;13.66;100.00;100547.97;6182083;23;20063;-85
2022/12/31 11:02:23;;;;;;;4.00;1.17;;;;;;;13.71;100.00;100541.72;6181427;23;20088;-85
2022/12/31 11:05:10;;;;;;;4.30;1.27;;;;;;;13.72;100.00;100535.25;6181663;23;20252;-86
2022/12/31 11:08:07;;;;;;;3.75;1.17;;;;;;;13.72;100.00;100562.16;6180877;23;20059;-86
2022/12/31 11:10:44;;;;;;;8.20;1.20;;;;;;;13.69;100.00;100568.13;6184180;23;20005;-84
2022/12/31 11:13:39;;;;;;;7.22;1.30;;;;;;;13.66;100.00;100564.13;6187121;23;20029;-84
2022/12/31 11:16:33;;;;;;;9.35;1.30;;;;;;;13.76;100.00;100569.38;6185344;23;19996;-86
2022/12/31 11:19:36;;;;;;;5.43;1.30;;;;;;;13.71;100.00;100561.34;6184368;23;20001;-85
2022/12/31 11:22:07;;;;;;;4.82;1.20;;;;;;;13.89;100.00;100583.25;6180973;23;20433;-85
2022/12/31 11:25:06;;;;;;;8.32;2.08;;;;;;;13.97;100.00;100555.69;6181940;23;20020;-86
2022/12/31 11:28:17;;;;;;;7.10;1.65;;;;;;;14.06;100.00;100578.19;6181180;23;20082;-84
2022/12/31 11:31:18;;;;;;;5.72;1.40;;;;;;;14.05;100.00;100576.63;6180583;23;20015;-85
2022/12/31 11:34:01;;;;;;;5.90;1.20;;;;;;;14.12;100.00;100570.06;6133488;23;20375;-84
2022/12/31 11:36:59;;;;;;;5.67;1.30;;;;;;;14.12;100.00;100591.63;6181470;23;20287;-83
2022/12/31 11:39:49;;;;;;;8.27;1.45;;;;;;;14.12;100.00;100586.22;6180506;23;20017;-84
2022/12/31 11:42:47;;;;;;;9.25;1.20;;;;;;;14.07;100.00;100576.31;6181742;23;20052;-84
2022/12/31 11:45:34;;;;;;;5.10;1.30;;;;;;;14.09;100.00;100576.84;6181376;23;20036;-85
2022/12/31 11:48:17;;;;;;;7.68;1.30;;;;;;;14.15;100.00;100575.69;6180059;23;20008;-84
2022/12/31 11:51:14;;;;;;;7.22;1.15;;;;;;;14.16;100.00;100584.56;6181038;23;20002;-84
2022/12/31 11:54:09;;;;;;;6.37;1.63;;;;;;;14.00;100.00;100563.22;6179507;23;20013;-84
2022/12/31 11:56:49;;;;;;;8.90;1.52;;;;;;;14.02;100.00;100571.81;6180832;23;20009;-85
2022/12/31 11:59:15;;;;;;;5.97;1.40;;;;;;;14.02;100.00;100587.97;6181941;23;20379;-85
2022/12/31 12:02:03;;;;;;;8.17;1.10;;;;;;;14.02;100.00;100585.28;6181469;23;20035;-84
2022/12/31 12:04:29;;;;;;;7.72;1.20;;;;;;;14.01;100.00;100589.06;6182917;23;20009;-83
2022/12/31 12:06:55;;;;;;;7.03;1.52;;;;;;;13.98;100.00;100589.63;6182315;23;20017;-83
2022/12/31 12:09:29;;;;;;;3.57;1.30;;;;;;;14.01;100.00;100594.44;6185504;23;20518;-84
2022/12/31 12:12:01;;;;;;;7.93;1.33;;;;;;;14.00;100.00;100595.53;6185395;23;20105;-85
2022/12/31 12:14:35;;;;;;;8.23;1.30;;;;;;;13.95;100.00;100582.13;6182749;23;20389;-85
2022/12/31 12:17:02;;;;;;;8.27;1.75;;;;;;;14.00;100.00;100586.63;6182990;23;20015;-85
2022/12/31 12:19:30;;;;;;;3.50;1.80;;;;;;;13.93;100.00;100584.28;6182753;23;20005;-86
2022/12/31 12:21:56;;;;;;;7.70;1.60;;;;;;;13.85;100.00;100577.63;6180933;23;20166;-86
2022/12/31 12:24:27;;;;;;;4.78;1.38;;;;;;;13.79;100.00;100573.38;6183461;23;20013;-86
2022/12/31 12:26:53;;;;;;;9.30;1.60;;;;;;;13.67;100.00;100568.41;6183612;23;20005;-86
2022/12/31 12:29:27;;;;;;;5.73;1.50;;;;;;;13.62;100.00;100584.63;6181492;23;20485;-86
2022/12/31 12:31:58;;;;;;;8.37;1.20;;;;;;;13.61;100.00;100589.19;6182832;23;20237;-84
2022/12/31 12:34:36;;;;;;;5.50;1.02;;;;;;;13.63;100.00;100572.75;6183897;23;20009;-83
2022/12/31 12:37:02;;;;;;;5.07;1.40;;;;;;;13.56;100.00;100553.44;6182546;23;20031;-87
2022/12/31 12:39:30;;;;;;;4.82;1.15;;;;;;;13.75;100.00;100583.94;6182502;23;20030;-87
2022/12/31 12:42:04;;;;;;;8.27;1.80;;;;;;;13.79;100.00;100562.63;6183418;23;20005;-85
2022/12/31 12:44:30;;;;;;;9.40;3.53;;;;;;;13.89;100.00;100567.91;6182905;23;20013;-85
2022/12/31 12:46:57;;;;;;;7.30;2.07;;;;;;;13.96;100.00;100570.25;6183779;23;20291;-87
2022/12/31 12:49:25;;;;;;;5.70;2.30;;;;;;;14.03;100.00;100559.13;6155962;23;20009;-86
2022/12/31 12:52:32;;;;;;;10.25;2.17;;;;;;;14.12;100.00;100570.88;6181661;23;20433;-83
2022/12/31 12:55:19;;;;;;;10.27;3.40;;;;;;;14.18;100.00;100568.94;6159021;23;20066;-84
2022/12/31 12:57:53;;;;;;;7.57;2.20;;;;;;;14.24;100.00;100557.78;6182579;23;20001;-84
2022/12/31 13:00:21;;;;;;;10.47;3.70;;;;;;;14.30;100.00;100566.59;6182852;23;20001;-86
2022/12/31 13:03:07;;;;;;;7.43;2.80;;;;;;;14.27;100.00;100544.84;6182662;23;20002;-84
2022/12/31 13:05:47;;;;;;;6.10;2.97;;;;;;;14.32;100.00;100563.66;6182712;23;20036;-84
2022/12/31 13:08:24;;;;;;;11.00;3.45;;;;;;;14.40;100.00;100576.47;6182349;23;20076;-84
2022/12/31 13:11:14;;;;;;;5.10;2.00;;;;;;;14.46;100.00;100572.63;6182299;23;20012;-84
2022/12/31 13:14:15;;;;;;;9.80;3.50;;;;;;;14.45;100.00;100564.78;6182881;23;19997;-85
2022/12/31 13:17:11;;;;;;;5.60;2.73;;;;;;;14.49;100.00;100582.00;6182416;23;20244;-84
2022/12/31 13:20:00;;;;;;;29.63;18.17;;;;;;;14.48;100.00;100566.91;6182312;23;20008;-84
2022/12/31 13:22:35;;;;;;;8.45;2.63;;;;;;;14.47;100.00;100592.28;6182801;23;20016;-84
2022/12/31 13:25:22;;;;;;;6.30;1.58;;;;;;;14.48;100.00;100583.09;6183587;23;20012;-85
2022/12/31 13:27:51;;;;;;;7.60;1.42;;;;;;;14.42;100.00;100571.59;6181496;23;20420;-86
2022/12/31 13:30:29;;;;;;;6.00;1.83;;;;;;;14.38;100.00;100574.06;6182764;23;20012;-85
2022/12/31 13:33:15;;;;;;;8.03;1.27;;;;;;;14.37;100.00;100569.75;6182870;23;20336;-85
2022/12/31 13:35:47;;;;;;;6.07;1.52;;;;;;;14.44;100.00;100565.88;6182459;23;20006;-84
2022/12/31 13:38:34;;;;;;;8.25;1.50;;;;;;;14.40;100.00;100568.38;6182111;23;20005;-84
2022/12/31 13:41:05;;;;;;;7.30;1.30;;;;;;;14.38;100.00;100568.69;6182472;23;20340;-86
2022/12/31 13:43:33;;;;;;;9.02;1.42;;;;;;;14.40;100.00;100571.06;6182673;23;20024;-84
2022/12/31 13:46:10;;;;;;;6.00;1.33;;;;;;;14.43;100.00;100572.38;6182237;23;20365;-86
2022/12/31 13:48:46;;;;;;;8.53;1.70;;;;;;;14.44;100.00;100585.56;6182152;23;20009;-84
2022/12/31 13:51:21;;;;;;;5.65;1.48;;;;;;;14.42;100.00;100565.41;6180949;23;20009;-83
2022/12/31 13:54:03;;;;;;;8.57;1.60;;;;;;;14.47;100.00;100576.09;6181528;23;20015;-85
2022/12/31 13:56:35;;;;;;;6.50;1.60;;;;;;;14.48;100.00;100581.22;6182289;23;20001;-84
2022/12/31 13:59:09;;;;;;;6.00;1.70;;;;;;;14.47;100.00;100555.34;6181086;23;20503;-84
2022/12/31 14:01:47;;;;;;;8.97;1.87;;;;;;;14.51;100.00;100569.03;6182133;23;20309;-84
2022/12/31 14:04:17;;;;;;;7.57;1.83;;;;;;;14.49;100.00;100555.03;6182522;23;20284;-84
2022/12/31 14:06:50;;;;;;;7.75;1.70;;;;;;;14.52;100.00;100568.75;6181037;23;20037;-84
2022/12/31 14:09:24;;;;;;;10.73;1.77;;;;;;;14.49;100.00;100563.13;6181564;23;20005;-83
2022/12/31 14:12:08;;;;;;;8.07;1.70;;;;;;;14.59;100.00;100571.09;6189442;23;20027;-83
2022/12/31 14:14:53;;;;;;;7.25;1.70;;;;;;;14.57;100.00;100577.84;6189909;23;20087;-82
2022/12/31 14:17:24;;;;;;;7.53;1.70;;;;;;;14.62;100.00;100589.38;6191780;23;20004;-84
2022/12/31 14:20:05;;;;;;;9.07;1.70;;;;;;;14.58;100.00;100582.97;6197284;23;20530;-85
2022/12/31 14:23:01;;;;;;;13.30;2.22;;;;;;;14.52;100.00;100568.75;6175759;23;20005;-85
2022/12/31 14:25:38;;;;;;;8.73;2.00;;;;;;;14.45;100.00;100567.50;6190207;23;20021;-84
2022/12/31 14:28:08;;;;;;;8.25;2.53;;;;;;;14.48;100.00;100575.00;6181465;23;20008;-83
2022/12/31 14:30:42;;;;;;;9.07;2.00;;;;;;;14.47;100.00;100592.28;6180533;23;20005;-85
2022/12/31 14:33:31;;;;;;;8.90;2.20;;;;;;;14.39;100.00;100591.03;6181699;23;20005;-85
2022/12/31 14:36:26;;;;;;;10.83;2.37;;;;;;;14.48;100.00;100601.97;6181035;23;20291;-84
2022/12/31 14:39:16;;;;;;;8.95;1.75;;;;;;;14.44;100.00;100598.22;6181855;23;20005;-85
2022/12/31 14:41:55;;;;;;;8.88;2.00;;;;;;;14.36;100.00;100591.59;6182398;23;20017;-85
2022/12/31 14:44:35;;;;;;;7.07;1.88;;;;;;;14.39;100.00;100618.78;6182952;23;20084;-85
2022/12/31 14:47:38;;;;;;;9.68;2.05;;;;;;;14.37;100.00;100607.50;6182172;23;20005;-85
2022/12/31 14:50:05;;;;;;;11.98;2.15;;;;;;;14.39;100.00;100624.19;6181671;23;20005;-84
2022/12/31 14:52:34;;;;;;;8.57;1.73;;;;;;;14.37;100.00;100615.59;6180969;23;20005;-84
2022/12/31 14:55:10;;;;;;;8.88;2.05;;;;;;;14.37;100.00;100603.97;6182589;23;20009;-86
2022/12/31 14:57:37;;;;;;;11.35;1.70;;;;;;;14.37;100.00;100603.97;6181377;23;20439;-86
2022/12/31 15:00:27;;;;;;;10.55;2.75;;;;;;;14.34;100.00;100605.38;6181848;23;20444;-84
2022/12/31 15:03:02;;;;;;;7.95;1.90;;;;;;;14.31;100.00;100615.94;6181147;23;20077;-84
2022/12/31 15:05:34;;;;;;;6.88;2.35;;;;;;;14.23;100.00;100614.69;6180686;23;20020;-86
2022/12/31 15:08:08;;;;;;;12.87;3.60;;;;;;;14.28;100.00;100628.06;6182341;23;20001;-85
2022/12/31 15:10:46;;;;;;;9.68;2.85;;;;;;;14.23;100.00;100617.38;6181859;23;20381;-84
2022/12/31 15:13:19;;;;;;;8.68;2.35;;;;;;;14.27;100.00;100615.69;6182162;23;20020;-84
2022/12/31 15:16:22;;;;;;;9.32;2.10;;;;;;;14.26;100.00;100611.38;6181620;23;20408;-86
2022/12/31 15:19:12;;;;;;;9.35;2.03;;;;;;;14.17;100.00;100621.22;6180738;23;20387;-84
2022/12/31 15:22:07;;;;;;;9.15;2.60;;;;;;;14.11;100.00;100609.69;6182037;23;20012;-84
2022/12/31 15:24:33;;;;;;;9.17;3.00;;;;;;;14.08;100.00;100613.75;6182106;23;20429;-84
2022/12/31 15:27:04;;;;;;;8.02;2.80;;;;;;;14.12;100.00;100605.91;6181144;23;20059;-86
2022/12/31 15:29:43;;;;;;;10.93;1.92;;;;;;;14.05;100.00;100603.56;6182013;23;20032;-84
2022/12/31 15:32:23;;;;;;;8.75;3.67;;;;;;;14.05;100.00;100605.44;6181215;23;20005;-87
2022/12/31 15:35:01;;;;;;;7.68;2.00;;;;;;;14.02;100.00;100593.34;6179781;23;20008;-83
2022/12/31 15:37:33;;;;;;;10.43;2.35;;;;;;;13.99;100.00;100606.56;6179416;23;20009;-85
2022/12/31 15:40:14;;;;;;;7.57;2.60;;;;;;;13.92;100.00;100607.75;6181491;23;20015;-85
2022/12/31 15:42:45;;;;;;;9.77;4.45;;;;;;;13.83;100.00;100616.72;6181841;23;20009;-85
2022/12/31 15:45:19;;;;;;;10.13;3.20;;;;;;;13.73;100.00;100599.56;6181789;23;20009;-84
2022/12/31 15:47:55;;;;;;;7.80;2.72;;;;;;;13.75;100.00;100605.47;6179509;23;20429;-84
2022/12/31 15:50:22;;;;;;;10.75;3.30;;;;;;;13.79;100.00;100600.31;6180512;23;20005;-84
2022/12/31 15:52:52;;;;;;;7.72;2.75;;;;;;;13.76;100.00;100612.47;6178962;23;20084;-84
2022/12/31 15:55:36;;;;;;;7.83;2.43;;;;;;;13.78;100.00;100606.81;6181540;23;20084;-84
2022/12/31 15:58:09;;;;;;;8.90;3.47;;;;;;;13.73;100.00;100606.84;6181479;23;20237;-83
2022/12/31 16:01:02;;;;;;;7.72;3.00;;;;;;;13.76;100.00;100606.28;6180515;23;20088;-83
2022/12/31 16:03:29;;;;;;;10.32;2.75;;;;;;;13.69;100.00;100606.63;6180650;23;20405;-83
2022/12/31 16:06:01;;;;;;;8.00;3.00;;;;;;;13.70;100.00;100597.44;6179476;23;20008;-84
2022/12/31 16:08:36;;;;;;;15.02;7.43;;;;;;;13.73;100.00;100614.94;6180362;23;20005;-84
2022/12/31 16:11:04;;;;;;;9.43;2.97;;;;;;;13.68;100.00;100606.91;6181316;23;20059;-82
2022/12/31 16:13:39;;;;;;;6.13;2.70;;;;;;;13.63;100.00;100599.69;6180593;23;20241;-83
2022/12/31 16:16:21;;;;;;;8.63;3.58;;;;;;;13.63;100.00;100605.84;6180467;23;20005;-83
2022/12/31 16:18:48;;;;;;;12.95;4.75;;;;;;;13.48;100.00;100585.28;6179832;23;20013;-83
2022/12/31 16:21:37;;;;;;;11.20;2.90;;;;;;;13.62;100.00;100595.38;6180102;23;20005;-82
2022/12/31 16:24:22;;;;;;;10.73;4.47;;;;;;;13.55;100.00;100582.25;6181110;23;20104;-82
2022/12/31 16:26:53;;;;;;;4.55;3.05;;;;;;;13.58;100.00;100586.25;6180896;23;20013;-84
2022/12/31 16:29:21;;;;;;;11.20;3.03;;;;;;;13.50;100.00;100570.75;6181314;23;20136;-84
2022/12/31 16:31:49;;;;;;;9.70;2.70;;;;;;;13.47;100.00;100575.59;6180368;23;20899;-84
2022/12/31 16:34:17;;;;;;;9.07;3.53;;;;;;;13.46;100.00;100586.63;6181123;23;20028;-83
2022/12/31 16:36:57;;;;;;;8.63;3.50;;;;;;;13.45;100.00;100588.53;6180392;23;20009;-83
2022/12/31 16:39:28;;;;;;;5.03;2.95;;;;;;;13.47;100.00;100583.69;6181592;23;20095;-87
2022/12/31 16:42:08;;;;;;;8.98;3.17;;;;;;;13.44;100.00;100578.84;6181446;23;20482;-86
2022/12/31 16:44:34;;;;;;;8.63;3.30;;;;;;;13.41;100.00;100579.41;6182098;23;20369;-86